sensor_id;sensor_type;location;lat;lon;timestamp;temperature;humidity
66582;SHT31;53438;48.898;2.308;2022-09-03T00:00:12;22.68;63.89
66582;SHT31;53438;48.898;2.308;2022-09-03T00:02:58;22.67;64.19
66582;SHT31;53438;48.898;2.308;2022-09-03T00:05:31;22.54;64.51
66582;SHT31;53438;48.898;2.308;2022-09-03T00:08:07;22.55;64.56
66582;SHT31;53438;48.898;2.308;2022-09-03T00:13:43;22.53;64.83
66582;SHT31;53438;48.898;2.308;2022-09-03T00:16:11;22.47;65.01
66582;SHT31;53438;48.898;2.308;2022-09-03T00:18:45;22.48;65.00
66582;SHT31;53438;48.898;2.308;2022-09-03T00:21:37;22.60;64.83
66582;SHT31;53438;48.898;2.308;2022-09-03T00:24:06;22.57;64.90
66582;SHT31;53438;48.898;2.308;2022-09-03T00:26:33;22.57;65.07
66582;SHT31;53438;48.898;2.308;2022-09-03T00:29:08;22.50;65.64
66582;SHT31;53438;48.898;2.308;2022-09-03T00:31:45;22.12;66.64
66582;SHT31;53438;48.898;2.308;2022-09-03T00:34:25;22.21;66.49
66582;SHT31;53438;48.898;2.308;2022-09-03T00:36:53;22.32;66.17
66582;SHT31;53438;48.898;2.308;2022-09-03T00:39:20;22.07;66.88
66582;SHT31;53438;48.898;2.308;2022-09-03T00:53:35;22.26;66.69
66582;SHT31;53438;48.898;2.308;2022-09-03T00:56:20;22.23;66.87
66582;SHT31;53438;48.898;2.308;2022-09-03T00:59:42;22.30;66.71
66582;SHT31;53438;48.898;2.308;2022-09-03T01:10:21;22.43;66.40
66582;SHT31;53438;48.898;2.308;2022-09-03T01:13:00;22.44;66.43
66582;SHT31;53438;48.898;2.308;2022-09-03T01:15:57;22.60;65.90
66582;SHT31;53438;48.898;2.308;2022-09-03T01:32:23;22.34;66.75
66582;SHT31;53438;48.898;2.308;2022-09-03T01:35:43;22.21;67.17
66582;SHT31;53438;48.898;2.308;2022-09-03T01:47:40;22.06;67.66
66582;SHT31;53438;48.898;2.308;2022-09-03T01:50:48;22.12;67.53
66582;SHT31;53438;48.898;2.308;2022-09-03T01:58:39;22.13;67.57
66582;SHT31;53438;48.898;2.308;2022-09-03T02:01:12;22.09;67.70
66582;SHT31;53438;48.898;2.308;2022-09-03T02:03:41;22.00;67.88
66582;SHT31;53438;48.898;2.308;2022-09-03T02:06:10;21.83;68.14
66582;SHT31;53438;48.898;2.308;2022-09-03T02:08:35;21.97;67.69
66582;SHT31;53438;48.898;2.308;2022-09-03T02:11:05;22.06;67.19
66582;SHT31;53438;48.898;2.308;2022-09-03T02:13:41;22.03;67.17
66582;SHT31;53438;48.898;2.308;2022-09-03T02:16:13;22.04;67.16
66582;SHT31;53438;48.898;2.308;2022-09-03T02:18:43;21.93;67.55
66582;SHT31;53438;48.898;2.308;2022-09-03T02:21:13;21.93;67.59
66582;SHT31;53438;48.898;2.308;2022-09-03T02:23:41;21.90;67.62
66582;SHT31;53438;48.898;2.308;2022-09-03T02:26:09;21.90;67.64
66582;SHT31;53438;48.898;2.308;2022-09-03T02:28:35;21.89;67.67
66582;SHT31;53438;48.898;2.308;2022-09-03T02:31:02;21.99;67.37
66582;SHT31;53438;48.898;2.308;2022-09-03T02:33:37;22.04;67.01
66582;SHT31;53438;48.898;2.308;2022-09-03T02:36:05;21.97;67.30
66582;SHT31;53438;48.898;2.308;2022-09-03T02:38:31;21.89;67.47
66582;SHT31;53438;48.898;2.308;2022-09-03T02:40:57;21.86;67.85
66582;SHT31;53438;48.898;2.308;2022-09-03T02:43:29;21.86;67.91
66582;SHT31;53438;48.898;2.308;2022-09-03T02:46:00;21.81;68.01
66582;SHT31;53438;48.898;2.308;2022-09-03T02:48:26;21.66;68.51
66582;SHT31;53438;48.898;2.308;2022-09-03T02:50:52;21.55;69.19
66582;SHT31;53438;48.898;2.308;2022-09-03T02:53:17;21.62;68.85
66582;SHT31;53438;48.898;2.308;2022-09-03T02:55:43;21.61;68.84
66582;SHT31;53438;48.898;2.308;2022-09-03T02:58:08;21.65;68.71
66582;SHT31;53438;48.898;2.308;2022-09-03T03:00:35;21.62;68.90
66582;SHT31;53438;48.898;2.308;2022-09-03T03:03:04;21.67;68.73
66582;SHT31;53438;48.898;2.308;2022-09-03T03:05:57;21.63;68.89
66582;SHT31;53438;48.898;2.308;2022-09-03T03:08:26;21.66;68.80
66582;SHT31;53438;48.898;2.308;2022-09-03T03:10:54;21.69;68.80
66582;SHT31;53438;48.898;2.308;2022-09-03T03:13:25;21.71;68.83
66582;SHT31;53438;48.898;2.308;2022-09-03T03:15:50;21.66;68.96
66582;SHT31;53438;48.898;2.308;2022-09-03T03:18:16;21.56;69.43
66582;SHT31;53438;48.898;2.308;2022-09-03T03:20:42;21.67;69.19
66582;SHT31;53438;48.898;2.308;2022-09-03T03:23:08;21.52;69.83
66582;SHT31;53438;48.898;2.308;2022-09-03T03:25:35;21.49;70.08
66582;SHT31;53438;48.898;2.308;2022-09-03T03:28:01;21.37;70.52
66582;SHT31;53438;48.898;2.308;2022-09-03T03:30:27;21.38;70.56
66582;SHT31;53438;48.898;2.308;2022-09-03T03:32:53;21.51;70.26
66582;SHT31;53438;48.898;2.308;2022-09-03T03:35:19;21.52;70.24
66582;SHT31;53438;48.898;2.308;2022-09-03T03:37:45;21.41;70.70
66582;SHT31;53438;48.898;2.308;2022-09-03T03:40:11;21.42;70.67
66582;SHT31;53438;48.898;2.308;2022-09-03T03:42:36;21.42;70.70
66582;SHT31;53438;48.898;2.308;2022-09-03T03:45:02;21.39;70.86
66582;SHT31;53438;48.898;2.308;2022-09-03T03:47:28;21.39;71.01
66582;SHT31;53438;48.898;2.308;2022-09-03T03:49:59;21.35;71.12
66582;SHT31;53438;48.898;2.308;2022-09-03T03:52:26;21.46;70.89
66582;SHT31;53438;48.898;2.308;2022-09-03T03:54:52;21.30;71.49
66582;SHT31;53438;48.898;2.308;2022-09-03T03:57:18;21.39;71.13
66582;SHT31;53438;48.898;2.308;2022-09-03T03:59:45;21.38;71.19
66582;SHT31;53438;48.898;2.308;2022-09-03T04:02:11;21.39;71.26
66582;SHT31;53438;48.898;2.308;2022-09-03T04:04:36;21.34;71.43
66582;SHT31;53438;48.898;2.308;2022-09-03T04:07:02;21.34;71.44
66582;SHT31;53438;48.898;2.308;2022-09-03T04:09:27;21.32;71.60
66582;SHT31;53438;48.898;2.308;2022-09-03T04:11:53;21.31;71.61
66582;SHT31;53438;48.898;2.308;2022-09-03T04:14:18;21.30;71.66
66582;SHT31;53438;48.898;2.308;2022-09-03T04:16:44;21.12;71.89
66582;SHT31;53438;48.898;2.308;2022-09-03T04:19:11;21.21;71.79
66582;SHT31;53438;48.898;2.308;2022-09-03T04:21:37;21.14;71.98
66582;SHT31;53438;48.898;2.308;2022-09-03T04:24:03;21.11;72.20
66582;SHT31;53438;48.898;2.308;2022-09-03T04:26:30;21.18;71.92
66582;SHT31;53438;48.898;2.308;2022-09-03T04:29:00;21.20;72.06
66582;SHT31;53438;48.898;2.308;2022-09-03T04:31:26;21.17;72.08
66582;SHT31;53438;48.898;2.308;2022-09-03T04:33:53;21.10;72.26
66582;SHT31;53438;48.898;2.308;2022-09-03T04:36:21;20.96;72.53
66582;SHT31;53438;48.898;2.308;2022-09-03T04:38:48;21.10;72.23
66582;SHT31;53438;48.898;2.308;2022-09-03T04:41:16;20.88;73.04
66582;SHT31;53438;48.898;2.308;2022-09-03T04:43:43;20.97;72.75
66582;SHT31;53438;48.898;2.308;2022-09-03T04:46:11;20.84;72.99
66582;SHT31;53438;48.898;2.308;2022-09-03T04:48:36;20.83;73.21
66582;SHT31;53438;48.898;2.308;2022-09-03T04:51:21;20.79;73.25
66582;SHT31;53438;48.898;2.308;2022-09-03T04:53:51;20.91;72.92
66582;SHT31;53438;48.898;2.308;2022-09-03T04:56:18;20.90;72.76
66582;SHT31;53438;48.898;2.308;2022-09-03T04:58:44;21.03;72.49
66582;SHT31;53438;48.898;2.308;2022-09-03T05:01:17;21.11;72.16
66582;SHT31;53438;48.898;2.308;2022-09-03T05:03:43;21.14;72.03
66582;SHT31;53438;48.898;2.308;2022-09-03T05:06:10;21.28;71.54
66582;SHT31;53438;48.898;2.308;2022-09-03T05:08:36;21.31;71.43
66582;SHT31;53438;48.898;2.308;2022-09-03T05:11:03;21.30;71.44
66582;SHT31;53438;48.898;2.308;2022-09-03T05:13:29;21.24;71.61
66582;SHT31;53438;48.898;2.308;2022-09-03T05:16:02;21.00;72.47
66582;SHT31;53438;48.898;2.308;2022-09-03T05:18:28;21.05;71.93
66582;SHT31;53438;48.898;2.308;2022-09-03T05:21:01;21.01;72.08
66582;SHT31;53438;48.898;2.308;2022-09-03T05:23:28;20.90;72.27
66582;SHT31;53438;48.898;2.308;2022-09-03T05:26:00;21.04;72.11
66582;SHT31;53438;48.898;2.308;2022-09-03T05:28:27;21.12;71.84
66582;SHT31;53438;48.898;2.308;2022-09-03T05:33:23;21.00;72.22
66582;SHT31;53438;48.898;2.308;2022-09-03T05:35:49;21.00;72.26
66582;SHT31;53438;48.898;2.308;2022-09-03T05:38:14;20.77;72.77
66582;SHT31;53438;48.898;2.308;2022-09-03T05:40:41;20.77;72.91
66582;SHT31;53438;48.898;2.308;2022-09-03T05:43:06;20.72;72.85
66582;SHT31;53438;48.898;2.308;2022-09-03T05:45:31;20.76;72.87
66582;SHT31;53438;48.898;2.308;2022-09-03T05:47:59;20.86;72.51
66582;SHT31;53438;48.898;2.308;2022-09-03T05:50:25;20.93;72.40
66582;SHT31;53438;48.898;2.308;2022-09-03T05:52:51;20.93;72.34
66582;SHT31;53438;48.898;2.308;2022-09-03T05:55:17;20.96;72.21
66582;SHT31;53438;48.898;2.308;2022-09-03T05:57:42;21.12;71.86
66582;SHT31;53438;48.898;2.308;2022-09-03T06:00:09;21.18;71.66
66582;SHT31;53438;48.898;2.308;2022-09-03T06:02:34;21.20;71.47
66582;SHT31;53438;48.898;2.308;2022-09-03T06:05:00;21.08;71.80
66582;SHT31;53438;48.898;2.308;2022-09-03T06:07:25;21.11;71.73
66582;SHT31;53438;48.898;2.308;2022-09-03T06:09:51;21.25;71.40
66582;SHT31;53438;48.898;2.308;2022-09-03T06:12:16;21.28;71.15
66582;SHT31;53438;48.898;2.308;2022-09-03T06:14:42;21.24;71.30
66582;SHT31;53438;48.898;2.308;2022-09-03T06:17:07;21.20;71.40
66582;SHT31;53438;48.898;2.308;2022-09-03T06:19:35;21.23;71.44
66582;SHT31;53438;48.898;2.308;2022-09-03T06:22:00;21.11;71.54
66582;SHT31;53438;48.898;2.308;2022-09-03T06:24:26;21.23;71.38
66582;SHT31;53438;48.898;2.308;2022-09-03T06:26:56;21.23;71.25
66582;SHT31;53438;48.898;2.308;2022-09-03T06:29:22;21.23;71.28
66582;SHT31;53438;48.898;2.308;2022-09-03T06:31:47;21.31;71.02
66582;SHT31;53438;48.898;2.308;2022-09-03T06:34:14;21.10;71.37
66582;SHT31;53438;48.898;2.308;2022-09-03T06:36:44;21.20;71.29
66582;SHT31;53438;48.898;2.308;2022-09-03T06:39:10;21.24;71.04
66582;SHT31;53438;48.898;2.308;2022-09-03T06:41:35;21.24;71.12
66582;SHT31;53438;48.898;2.308;2022-09-03T06:44:06;21.18;71.25
66582;SHT31;53438;48.898;2.308;2022-09-03T06:46:36;21.17;71.45
66582;SHT31;53438;48.898;2.308;2022-09-03T06:49:06;21.21;71.21
66582;SHT31;53438;48.898;2.308;2022-09-03T06:51:33;21.28;70.96
66582;SHT31;53438;48.898;2.308;2022-09-03T06:54:00;21.34;70.68
66582;SHT31;53438;48.898;2.308;2022-09-03T06:56:26;21.35;70.52
66582;SHT31;53438;48.898;2.308;2022-09-03T06:58:56;21.38;70.51
66582;SHT31;53438;48.898;2.308;2022-09-03T07:01:24;21.46;70.24
66582;SHT31;53438;48.898;2.308;2022-09-03T07:03:56;21.11;70.97
66582;SHT31;53438;48.898;2.308;2022-09-03T07:06:23;21.17;70.87
66582;SHT31;53438;48.898;2.308;2022-09-03T07:08:49;21.24;70.75
66582;SHT31;53438;48.898;2.308;2022-09-03T07:11:16;21.25;70.65
66582;SHT31;53438;48.898;2.308;2022-09-03T07:13:48;21.41;70.30
66582;SHT31;53438;48.898;2.308;2022-09-03T07:18:40;21.38;70.24
66582;SHT31;53438;48.898;2.308;2022-09-03T07:21:19;21.51;69.77
66582;SHT31;53438;48.898;2.308;2022-09-03T07:23:45;21.52;69.69
66582;SHT31;53438;48.898;2.308;2022-09-03T07:26:14;21.62;69.42
66582;SHT31;53438;48.898;2.308;2022-09-03T07:28:42;21.65;69.23
66582;SHT31;53438;48.898;2.308;2022-09-03T07:31:10;21.41;69.55
66582;SHT31;53438;48.898;2.308;2022-09-03T07:33:37;21.58;69.39
66582;SHT31;53438;48.898;2.308;2022-09-03T07:36:05;21.83;68.81
66582;SHT31;53438;48.898;2.308;2022-09-03T07:38:34;21.92;68.05
66582;SHT31;53438;48.898;2.308;2022-09-03T07:41:01;21.90;68.42
66582;SHT31;53438;48.898;2.308;2022-09-03T07:43:28;21.97;68.38
66582;SHT31;53438;48.898;2.308;2022-09-03T07:45:54;21.83;68.75
66582;SHT31;53438;48.898;2.308;2022-09-03T07:48:22;21.56;69.52
66582;SHT31;53438;48.898;2.308;2022-09-03T07:50:48;21.93;68.27
66582;SHT31;53438;48.898;2.308;2022-09-03T07:53:16;21.59;68.88
66582;SHT31;53438;48.898;2.308;2022-09-03T07:55:42;21.75;68.66
66582;SHT31;53438;48.898;2.308;2022-09-03T07:58:11;21.78;68.24
66582;SHT31;53438;48.898;2.308;2022-09-03T08:00:37;21.86;68.11
66582;SHT31;53438;48.898;2.308;2022-09-03T08:03:03;21.88;67.86
66582;SHT31;53438;48.898;2.308;2022-09-03T08:05:33;21.88;67.74
66582;SHT31;53438;48.898;2.308;2022-09-03T08:07:59;21.82;67.83
66582;SHT31;53438;48.898;2.308;2022-09-03T08:10:25;21.83;68.03
66582;SHT31;53438;48.898;2.308;2022-09-03T08:12:52;21.93;67.79
66582;SHT31;53438;48.898;2.308;2022-09-03T08:15:18;22.06;67.41
66582;SHT31;53438;48.898;2.308;2022-09-03T08:17:43;22.13;67.31
66582;SHT31;53438;48.898;2.308;2022-09-03T08:20:09;22.20;67.25
66582;SHT31;53438;48.898;2.308;2022-09-03T08:22:34;22.23;67.21
66582;SHT31;53438;48.898;2.308;2022-09-03T08:25:01;22.43;66.27
66582;SHT31;53438;48.898;2.308;2022-09-03T08:27:27;22.12;67.04
66582;SHT31;53438;48.898;2.308;2022-09-03T08:29:53;22.21;66.90
66582;SHT31;53438;48.898;2.308;2022-09-03T08:32:19;22.36;66.49
66582;SHT31;53438;48.898;2.308;2022-09-03T08:34:44;22.65;65.98
66582;SHT31;53438;48.898;2.308;2022-09-03T08:37:11;22.67;65.69
66582;SHT31;53438;48.898;2.308;2022-09-03T08:39:37;22.67;65.55
66582;SHT31;53438;48.898;2.308;2022-09-03T08:42:20;22.87;65.27
66582;SHT31;53438;48.898;2.308;2022-09-03T08:44:48;22.84;65.25
66582;SHT31;53438;48.898;2.308;2022-09-03T08:47:37;23.11;64.36
66582;SHT31;53438;48.898;2.308;2022-09-03T08:50:37;23.32;63.86
66582;SHT31;53438;48.898;2.308;2022-09-03T08:55:35;23.15;63.33
66582;SHT31;53438;48.898;2.308;2022-09-03T08:58:18;23.09;63.35
66582;SHT31;53438;48.898;2.308;2022-09-03T09:00:56;22.98;63.85
66582;SHT31;53438;48.898;2.308;2022-09-03T09:08:55;23.13;63.62
66582;SHT31;53438;48.898;2.308;2022-09-03T09:14:09;23.09;63.86
66582;SHT31;53438;48.898;2.308;2022-09-03T09:22:40;22.99;63.54
66582;SHT31;53438;48.898;2.308;2022-09-03T09:25:13;23.02;63.20
66582;SHT31;53438;48.898;2.308;2022-09-03T09:27:50;23.02;63.45
66582;SHT31;53438;48.898;2.308;2022-09-03T09:30:17;23.02;63.66
66582;SHT31;53438;48.898;2.308;2022-09-03T09:32:43;23.02;63.62
66582;SHT31;53438;48.898;2.308;2022-09-03T09:35:10;22.94;64.11
66582;SHT31;53438;48.898;2.308;2022-09-03T09:37:55;22.87;64.79
66582;SHT31;53438;48.898;2.308;2022-09-03T09:40:39;22.94;64.53
66582;SHT31;53438;48.898;2.308;2022-09-03T09:43:14;22.96;64.44
66582;SHT31;53438;48.898;2.308;2022-09-03T09:45:43;22.99;64.30
66582;SHT31;53438;48.898;2.308;2022-09-03T09:48:27;22.92;63.56
66582;SHT31;53438;48.898;2.308;2022-09-03T09:51:18;22.84;63.85
66582;SHT31;53438;48.898;2.308;2022-09-03T09:53:44;23.01;63.24
66582;SHT31;53438;48.898;2.308;2022-09-03T09:56:23;22.99;63.50
66582;SHT31;53438;48.898;2.308;2022-09-03T09:58:49;23.05;63.53
66582;SHT31;53438;48.898;2.308;2022-09-03T10:01:22;23.13;63.47
66582;SHT31;53438;48.898;2.308;2022-09-03T10:03:50;23.34;63.31
66582;SHT31;53438;48.898;2.308;2022-09-03T10:06:25;23.54;63.01
66582;SHT31;53438;48.898;2.308;2022-09-03T10:09:18;23.53;63.36
66582;SHT31;53438;48.898;2.308;2022-09-03T10:14:38;23.56;62.99
66582;SHT31;53438;48.898;2.308;2022-09-03T10:17:29;23.71;62.70
66582;SHT31;53438;48.898;2.308;2022-09-03T10:20:15;23.81;62.68
66582;SHT31;53438;48.898;2.308;2022-09-03T10:23:07;23.66;62.64
66582;SHT31;53438;48.898;2.308;2022-09-03T10:25:38;23.57;62.31
66582;SHT31;53438;48.898;2.308;2022-09-03T10:28:07;23.54;62.30
66582;SHT31;53438;48.898;2.308;2022-09-03T10:30:44;23.38;62.72
66582;SHT31;53438;48.898;2.308;2022-09-03T10:33:25;22.98;64.00
66582;SHT31;53438;48.898;2.308;2022-09-03T10:36:16;23.12;63.82
66582;SHT31;53438;48.898;2.308;2022-09-03T10:38:49;23.22;63.42
66582;SHT31;53438;48.898;2.308;2022-09-03T10:41:31;23.20;63.62
66582;SHT31;53438;48.898;2.308;2022-09-03T10:52:35;23.47;62.47
66582;SHT31;53438;48.898;2.308;2022-09-03T10:55:11;23.60;62.17
66582;SHT31;53438;48.898;2.308;2022-09-03T11:00:33;23.60;62.15
66582;SHT31;53438;48.898;2.308;2022-09-03T11:03:36;23.59;61.70
66582;SHT31;53438;48.898;2.308;2022-09-03T11:06:15;23.77;59.88
66582;SHT31;53438;48.898;2.308;2022-09-03T11:08:48;23.84;59.12
66582;SHT31;53438;48.898;2.308;2022-09-03T11:11:19;23.74;59.64
66582;SHT31;53438;48.898;2.308;2022-09-03T11:14:15;23.85;59.60
66582;SHT31;53438;48.898;2.308;2022-09-03T11:16:52;23.71;60.57
66582;SHT31;53438;48.898;2.308;2022-09-03T11:19:23;23.67;60.49
66582;SHT31;53438;48.898;2.308;2022-09-03T11:21:54;23.80;60.29
66582;SHT31;53438;48.898;2.308;2022-09-03T11:24:25;23.84;60.35
66582;SHT31;53438;48.898;2.308;2022-09-03T11:27:19;23.98;59.87
66582;SHT31;53438;48.898;2.308;2022-09-03T11:30:05;23.96;59.97
66582;SHT31;53438;48.898;2.308;2022-09-03T11:32:55;23.77;60.70
66582;SHT31;53438;48.898;2.308;2022-09-03T11:35:42;23.84;59.50
66582;SHT31;53438;48.898;2.308;2022-09-03T11:38:19;24.00;59.24
66582;SHT31;53438;48.898;2.308;2022-09-03T11:45:47;24.00;60.14
66582;SHT31;53438;48.898;2.308;2022-09-03T11:48:32;24.24;59.47
66582;SHT31;53438;48.898;2.308;2022-09-03T11:50:58;24.20;59.19
66582;SHT31;53438;48.898;2.308;2022-09-03T11:53:25;24.47;58.38
66582;SHT31;53438;48.898;2.308;2022-09-03T11:58:31;24.48;57.45
66582;SHT31;53438;48.898;2.308;2022-09-03T12:01:01;24.43;57.86
66582;SHT31;53438;48.898;2.308;2022-09-03T12:03:42;24.35;57.99
66582;SHT31;53438;48.898;2.308;2022-09-03T12:06:16;24.33;58.04
66582;SHT31;53438;48.898;2.308;2022-09-03T12:09:10;24.35;58.11
66582;SHT31;53438;48.898;2.308;2022-09-03T12:22:13;24.53;56.82
66582;SHT31;53438;48.898;2.308;2022-09-03T12:24:40;24.29;57.55
66582;SHT31;53438;48.898;2.308;2022-09-03T12:27:08;24.35;57.67
66582;SHT31;53438;48.898;2.308;2022-09-03T12:29:34;24.25;57.31
66582;SHT31;53438;48.898;2.308;2022-09-03T12:32:08;24.49;56.52
66582;SHT31;53438;48.898;2.308;2022-09-03T12:34:35;24.55;56.65
66582;SHT31;53438;48.898;2.308;2022-09-03T12:37:01;24.62;56.26
66582;SHT31;53438;48.898;2.308;2022-09-03T12:39:28;24.62;56.60
66582;SHT31;53438;48.898;2.308;2022-09-03T12:47:15;24.42;58.23
66582;SHT31;53438;48.898;2.308;2022-09-03T12:49:46;24.36;58.55
66582;SHT31;53438;48.898;2.308;2022-09-03T12:52:25;24.66;58.10
66582;SHT31;53438;48.898;2.308;2022-09-03T12:55:03;24.39;58.99
66582;SHT31;53438;48.898;2.308;2022-09-03T12:58:18;24.51;59.00
66582;SHT31;53438;48.898;2.308;2022-09-03T13:00:52;24.49;58.88
66582;SHT31;53438;48.898;2.308;2022-09-03T13:03:27;24.65;58.94
66582;SHT31;53438;48.898;2.308;2022-09-03T13:05:57;24.31;59.99
66582;SHT31;53438;48.898;2.308;2022-09-03T13:08:27;24.28;60.45
66582;SHT31;53438;48.898;2.308;2022-09-03T13:10:56;24.51;59.77
66582;SHT31;53438;48.898;2.308;2022-09-03T13:13:29;24.28;60.45
66582;SHT31;53438;48.898;2.308;2022-09-03T13:30:31;24.29;61.37
66582;SHT31;53438;48.898;2.308;2022-09-03T13:33:23;23.93;62.35
66582;SHT31;53438;48.898;2.308;2022-09-03T13:38:42;24.21;60.75
66582;SHT31;53438;48.898;2.308;2022-09-03T13:41:13;23.90;60.62
66582;SHT31;53438;48.898;2.308;2022-09-03T13:46:39;23.36;65.64
66582;SHT31;53438;48.898;2.308;2022-09-03T13:51:57;22.74;69.80
66582;SHT31;53438;48.898;2.308;2022-09-03T13:54:34;22.71;69.36
66582;SHT31;53438;48.898;2.308;2022-09-03T13:57:33;22.95;69.11
66582;SHT31;53438;48.898;2.308;2022-09-03T14:00:06;23.12;68.79
66582;SHT31;53438;48.898;2.308;2022-09-03T14:02:52;23.33;66.44
66582;SHT31;53438;48.898;2.308;2022-09-03T14:15:46;23.09;65.26
66582;SHT31;53438;48.898;2.308;2022-09-03T14:20:52;23.29;64.43
66582;SHT31;53438;48.898;2.308;2022-09-03T14:23:34;23.22;65.04
66582;SHT31;53438;48.898;2.308;2022-09-03T14:26:04;23.23;65.32
66582;SHT31;53438;48.898;2.308;2022-09-03T14:28:40;23.50;63.99
66582;SHT31;53438;48.898;2.308;2022-09-03T14:34:14;23.02;62.93
66582;SHT31;53438;48.898;2.308;2022-09-03T14:37:14;23.05;61.95
66582;SHT31;53438;48.898;2.308;2022-09-03T14:39:53;23.13;62.36
66582;SHT31;53438;48.898;2.308;2022-09-03T15:03:40;23.94;58.92
66582;SHT31;53438;48.898;2.308;2022-09-03T15:06:36;24.11;58.00
66582;SHT31;53438;48.898;2.308;2022-09-03T15:12:00;24.39;56.90
66582;SHT31;53438;48.898;2.308;2022-09-03T15:16:57;24.66;56.02
66582;SHT31;53438;48.898;2.308;2022-09-03T15:24:59;24.96;55.69
66582;SHT31;53438;48.898;2.308;2022-09-03T15:30:17;25.31;55.00
66582;SHT31;53438;48.898;2.308;2022-09-03T15:35:42;25.58;54.60
66582;SHT31;53438;48.898;2.308;2022-09-03T15:43:48;25.42;55.14
66582;SHT31;53438;48.898;2.308;2022-09-03T15:49:17;25.10;56.04
66582;SHT31;53438;48.898;2.308;2022-09-03T15:52:05;25.40;55.51
66582;SHT31;53438;48.898;2.308;2022-09-03T15:54:49;25.00;55.18
66582;SHT31;53438;48.898;2.308;2022-09-03T15:59:56;25.35;55.23
66582;SHT31;53438;48.898;2.308;2022-09-03T16:02:33;25.19;55.55
66582;SHT31;53438;48.898;2.308;2022-09-03T16:05:10;25.19;55.74
66582;SHT31;53438;48.898;2.308;2022-09-03T16:10:18;25.13;55.59
66582;SHT31;53438;48.898;2.308;2022-09-03T16:15:56;25.17;55.10
66582;SHT31;53438;48.898;2.308;2022-09-03T16:24:14;25.09;55.20
66582;SHT31;53438;48.898;2.308;2022-09-03T16:29:28;24.79;55.79
66582;SHT31;53438;48.898;2.308;2022-09-03T16:35:02;24.70;55.91
66582;SHT31;53438;48.898;2.308;2022-09-03T16:43:33;24.80;54.91
66582;SHT31;53438;48.898;2.308;2022-09-03T16:47:22;24.68;54.50
66582;SHT31;53438;48.898;2.308;2022-09-03T16:51:56;24.76;54.36
66582;SHT31;53438;48.898;2.308;2022-09-03T16:54:47;24.66;54.68
66582;SHT31;53438;48.898;2.308;2022-09-03T17:00:19;24.55;55.18
66582;SHT31;53438;48.898;2.308;2022-09-03T17:03:20;24.59;55.15
66582;SHT31;53438;48.898;2.308;2022-09-03T17:08:47;24.62;54.47
66582;SHT31;53438;48.898;2.308;2022-09-03T17:11:34;24.61;54.41
66582;SHT31;53438;48.898;2.308;2022-09-03T17:19:52;24.61;54.26
66582;SHT31;53438;48.898;2.308;2022-09-03T17:27:58;24.59;52.90
66582;SHT31;53438;48.898;2.308;2022-09-03T17:30:34;24.56;53.19
66582;SHT31;53438;48.898;2.308;2022-09-03T17:36:10;24.62;52.13
66582;SHT31;53438;48.898;2.308;2022-09-03T17:41:47;24.49;52.55
66582;SHT31;53438;48.898;2.308;2022-09-03T17:49:41;24.47;52.72
66582;SHT31;53438;48.898;2.308;2022-09-03T17:57:53;24.25;53.66
66582;SHT31;53438;48.898;2.308;2022-09-03T18:00:33;24.32;53.42
66582;SHT31;53438;48.898;2.308;2022-09-03T18:03:10;24.28;53.20
66582;SHT31;53438;48.898;2.308;2022-09-03T18:05:46;24.29;53.35
66582;SHT31;53438;48.898;2.308;2022-09-03T18:08:26;24.24;53.77
66582;SHT31;53438;48.898;2.308;2022-09-03T18:11:08;24.26;53.66
66582;SHT31;53438;48.898;2.308;2022-09-03T18:16:31;24.26;53.50
66582;SHT31;53438;48.898;2.308;2022-09-03T18:19:13;24.20;53.68
66582;SHT31;53438;48.898;2.308;2022-09-03T18:21:46;24.12;53.81
66582;SHT31;53438;48.898;2.308;2022-09-03T18:27:32;24.18;54.01
66582;SHT31;53438;48.898;2.308;2022-09-03T18:30:19;24.11;54.28
66582;SHT31;53438;48.898;2.308;2022-09-03T18:33:03;24.08;54.39
66582;SHT31;53438;48.898;2.308;2022-09-03T18:35:47;23.87;55.28
66582;SHT31;53438;48.898;2.308;2022-09-03T18:38:34;23.77;55.80
66582;SHT31;53438;48.898;2.308;2022-09-03T18:56:21;23.73;56.48
66582;SHT31;53438;48.898;2.308;2022-09-03T19:02:42;23.75;56.42
66582;SHT31;53438;48.898;2.308;2022-09-03T19:05:39;23.75;56.48
66582;SHT31;53438;48.898;2.308;2022-09-03T19:08:40;23.78;56.46
66582;SHT31;53438;48.898;2.308;2022-09-03T19:20:40;23.70;56.96
66582;SHT31;53438;48.898;2.308;2022-09-03T19:23:27;23.71;57.12
66582;SHT31;53438;48.898;2.308;2022-09-03T19:26:30;23.66;57.24
66582;SHT31;53438;48.898;2.308;2022-09-03T19:32:43;23.77;57.10
66582;SHT31;53438;48.898;2.308;2022-09-03T19:35:56;23.71;57.34
66582;SHT31;53438;48.898;2.308;2022-09-03T19:42:02;23.70;57.42
66582;SHT31;53438;48.898;2.308;2022-09-03T19:48:24;23.71;57.62
66582;SHT31;53438;48.898;2.308;2022-09-03T19:51:16;23.70;57.58
66582;SHT31;53438;48.898;2.308;2022-09-03T19:54:02;23.67;57.76
66582;SHT31;53438;48.898;2.308;2022-09-03T19:56:48;23.69;57.79
66582;SHT31;53438;48.898;2.308;2022-09-03T19:59:37;23.67;57.82
66582;SHT31;53438;48.898;2.308;2022-09-03T20:02:23;23.69;57.89
66582;SHT31;53438;48.898;2.308;2022-09-03T20:05:12;23.71;57.87
66582;SHT31;53438;48.898;2.308;2022-09-03T20:07:59;23.64;58.02
66582;SHT31;53438;48.898;2.308;2022-09-03T20:10:44;23.64;58.06
66582;SHT31;53438;48.898;2.308;2022-09-03T20:13:15;23.63;58.31
66582;SHT31;53438;48.898;2.308;2022-09-03T20:18:48;23.66;58.07
66582;SHT31;53438;48.898;2.308;2022-09-03T20:32:42;23.63;58.08
66582;SHT31;53438;48.898;2.308;2022-09-03T20:41:27;23.63;57.96
66582;SHT31;53438;48.898;2.308;2022-09-03T20:52:31;23.60;57.81
66582;SHT31;53438;48.898;2.308;2022-09-03T20:55:19;23.60;57.80
66582;SHT31;53438;48.898;2.308;2022-09-03T20:57:56;23.54;57.91
66582;SHT31;53438;48.898;2.308;2022-09-03T21:00:27;23.54;58.02
66582;SHT31;53438;48.898;2.308;2022-09-03T21:03:14;23.56;58.19
66582;SHT31;53438;48.898;2.308;2022-09-03T21:10:57;23.40;58.61
66582;SHT31;53438;48.898;2.308;2022-09-03T21:18:45;23.46;58.80
66582;SHT31;53438;48.898;2.308;2022-09-03T21:21:22;23.34;59.43
66582;SHT31;53438;48.898;2.308;2022-09-03T21:24:02;23.24;59.91
66582;SHT31;53438;48.898;2.308;2022-09-03T21:26:32;23.19;59.99
66582;SHT31;53438;48.898;2.308;2022-09-03T21:29:05;23.01;60.09
66582;SHT31;53438;48.898;2.308;2022-09-03T21:34:32;22.95;60.33
66582;SHT31;53438;48.898;2.308;2022-09-03T21:37:02;22.94;60.49
66582;SHT31;53438;48.898;2.308;2022-09-03T21:39:55;22.96;60.34
66582;SHT31;53438;48.898;2.308;2022-09-03T21:42:40;22.94;60.27
66582;SHT31;53438;48.898;2.308;2022-09-03T21:48:04;22.85;60.48
66582;SHT31;53438;48.898;2.308;2022-09-03T21:53:11;22.76;60.70
66582;SHT31;53438;48.898;2.308;2022-09-03T22:00:54;22.71;60.71
66582;SHT31;53438;48.898;2.308;2022-09-03T22:03:21;22.68;61.02
66582;SHT31;53438;48.898;2.308;2022-09-03T22:05:55;22.58;61.21